Mahone, West Virginia
Current Conditions -  °F | °C
As of 4:53 AM on Sunday 25 Jan 2015 (Local Time) from KPKB Reporting Station
Haze Haze  
Wind Chill: 29°   Ceiling: 3900
Heat Index: 33°   Visibility: 6mi
Dew Point: 31°   Wind: 5mph
Humidity: 92%   Direction: 200°SSW
Pressure: 29.81"   Gusts: NA
Location:  39.1565°N, 81.0304°W
Report Text: KPKB 250953Z AUTO 20004KT 6SM BR OVC039 01/M01 A2981 RMK AO2 SLP101 T00061006
Loading
Personal Weather Stations






























Interactive Weather Map New forecast layout! Learn more

10-Day Weather Forecast

Advertisements
Track Severe Weather on mobile